JP-0072 weather

Taoka Hospital Helipad (rooftop)
Tokushima, Tokushima Prefecture, Japan

Public forecast

Using degrees Celsius for public forecast. Weather courtesy of forecast.io.

METAR (pilot weather report)

Closest report is Tokushima Airport/JMSDF Air Base, 4.6 nm (8.5 km) NNE. Retrieved 2019/05/20 18:00 UTC (4 minutes ago):

RJOS 201800Z 36005KT 9999 -SHRA FEW012 SCT025 OVC050 19/18 Q1001

TAF (pilot weather forecast)

Closest forecast is Takamatsu Airport, 28.6 nm (53.0 km) WNW. Retrieved 2019/05/20 18:00 UTC (4 minutes ago):

TAF RJOT 201709Z 2018/2200 26010KT 9999 FEW020 SCT045 BECMG 2109/2112 20005KT